Time;durP1;ratioP1;P1;durP2;ratioP2;P2;SDS_P1;SDS_P2;PMS_P1;PMS_P2;Temp;Humidity;BMP_temperature;BMP_pressure;BME280_temperature;BME280_humidity;BME280_pressure;Samples;Min_cycle;Max_cycle;Signal;HPM_P1;HPM_P2
2021/06/18 00:03:52;;;;;;;;;;;;;;;;;;;;;
2021/06/18 00:11:31;;;;;;;71.30;36.80;;;;;;;19.11;76.28;92920.75;4992951;28;20058;-95
2021/06/18 00:18:36;;;;;;;;;;;;;;;;;;;;;
2021/06/18 00:48:43;;;;;;;;;;;;;;;;;;;;;
2021/06/18 00:52:15;;;;;;;;;;;;;;;;;;;;;
2021/06/18 01:03:00;;;;;;;;;;;;;;;;;;;;;
2021/06/18 01:29:52;;;;;;;;;;;;;;;;;;;;;
2021/06/18 01:33:30;;;;;;;70.32;37.40;;;;;;;18.64;78.34;92897.97;4906282;29;20057;-94
2021/06/18 01:37:20;;;;;;;67.82;37.33;;;;;;;18.31;78.22;92853.63;4909423;29;20044;-94
2021/06/18 01:40:49;;;;;;;;;;;;;;;;;;;;;
2021/06/18 01:44:52;;;;;;;;;;;;;;;;;;;;;
2021/06/18 01:48:15;;;;;;;;;;;;;;;;;;;;;
2021/06/18 01:55:34;;;;;;;64.75;36.30;;;;;;;18.23;77.78;92843.88;4912465;29;20037;-94
2021/06/18 02:03:05;;;;;;;62.33;35.40;;;;;;;18.20;77.52;92836.59;4905899;29;20037;-94
2021/06/18 02:26:25;;;;;;;;;;;;;;;;;;;;;
2021/06/18 02:29:50;;;;;;;67.28;36.78;;;;;;;17.96;78.47;92823.22;4893599;29;20044;-94
2021/06/18 03:00:57;;;;;;;;;;;;;;;;;;;;;
2021/06/18 03:08:24;;;;;;;;;;;;;;;;;;;;;
2021/06/18 03:27:38;;;;;;;53.33;31.35;;;;;;;17.94;78.28;92862.50;4900441;28;20085;-94
2021/06/18 03:37:58;;;;;;;;;;;;;;;;;;;;;
2021/06/18 03:44:34;;;;;;;67.15;36.67;;;;;;;17.87;79.15;92857.69;4932714;28;20053;-95
2021/06/18 03:48:03;;;;;;;71.82;38.30;;;;;;;17.85;78.98;92851.94;4916427;28;20056;-94
2021/06/18 03:51:16;;;;;;;68.35;37.20;;;;;;;17.67;79.28;92828.22;4953319;28;20138;-95
2021/06/18 03:54:22;;;;;;;;;;;;;;;;;;;;;
2021/06/18 03:58:01;;;;;;;56.40;33.58;;;;;;;18.01;78.93;92887.38;4972517;28;20055;-93
2021/06/18 04:05:33;;;;;;;;;;;;;;;;;;;;;
2021/06/18 04:24:34;;;;;;;;;;;;;;;;;;;;;
2021/06/18 04:31:52;;;;;;;;;;;;;;;;;;;;;
2021/06/18 04:38:33;;;;;;;;;;;;;;;;;;;;;
2021/06/18 04:45:34;;;;;;;;;;;;;;;;;;;;;
2021/06/18 04:48:45;;;;;;;;;;;;;;;;;;;;;
2021/06/18 04:56:09;;;;;;;59.65;34.65;;;;;;;19.40;74.38;92908.44;4924356;28;20061;-94
2021/06/18 05:06:40;;;;;;;;;;;;;;;;;;;;;
2021/06/18 05:10:11;;;;;;;56.85;33.00;;;;;;;19.79;74.40;92927.50;4934530;29;20509;-92
2021/06/18 05:13:32;;;;;;;59.80;33.53;;;;;;;19.78;74.80;92918.00;4918183;28;20047;-91
2021/06/18 05:24:13;;;;;;;;;;;;;;;;;;;;;
2021/06/18 05:31:31;;;;;;;51.15;30.63;;;;;;;20.75;69.83;92933.00;4920005;29;20119;-93
2021/06/18 05:42:42;;;;;;;47.15;29.63;;;;;;;21.28;69.23;92954.16;4934827;29;20051;-92
2021/06/18 05:46:00;;;;;;;47.78;28.15;;;;;;;21.05;71.40;92982.44;4904202;29;20056;-91
2021/06/18 05:52:40;;;;;;;;;;;;;;;;;;;;;
2021/06/18 06:10:46;;;;;;;39.85;25.98;;;;;;;25.51;52.89;93004.69;4890838;28;20059;-94
2021/06/18 06:20:46;;;;;;;37.75;25.95;;;;;;;25.28;54.10;93012.06;4918085;28;20047;-94
2021/06/18 06:23:56;;;;;;;41.38;24.90;;;;;;;24.76;55.49;92970.88;4936541;28;20051;-94
2021/06/18 06:27:11;;;;;;;;;;;;;;;;;;;;;
2021/06/18 06:41:11;;;;;;;;;;;;;;;;;;;;;
2021/06/18 06:51:55;;;;;;;46.08;25.75;;;;;;;21.85;63.06;93034.00;4923924;28;20065;-94
2021/06/18 06:55:43;;;;;;;;;;;;;;;;;;;;;
2021/06/18 07:02:06;;;;;;;44.03;26.65;;;;;;;22.39;58.99;93020.06;4953382;28;20615;-77
2021/06/18 07:04:33;;;;;;;48.42;25.80;;;;;;;22.69;60.26;93012.34;4922205;29;20055;-79
2021/06/18 07:06:58;;;;;;;44.75;25.75;;;;;;;22.63;61.28;93008.41;4955934;29;20067;-78
2021/06/18 07:09:24;;;;;;;42.35;25.92;;;;;;;22.61;60.88;93005.31;4952714;28;20169;-78
2021/06/18 07:11:50;;;;;;;51.72;27.85;;;;;;;22.51;62.06;93017.28;4948821;29;20484;-78
2021/06/18 07:14:15;;;;;;;39.50;25.63;;;;;;;22.79;60.47;93005.69;5022192;28;20059;-78
2021/06/18 07:16:41;;;;;;;46.00;26.05;;;;;;;23.02;58.83;93009.25;5037964;28;20045;-78
2021/06/18 07:19:07;;;;;;;49.88;28.50;;;;;;;23.24;60.60;93004.34;5038594;28;20025;-78
2021/06/18 07:21:32;;;;;;;46.53;28.65;;;;;;;22.83;61.24;93009.19;5056297;28;20056;-78
2021/06/18 07:23:59;;;;;;;44.67;26.80;;;;;;;22.98;62.24;93000.34;5055882;28;20041;-78
2021/06/18 07:26:25;;;;;;;48.30;29.60;;;;;;;23.05;62.22;93008.53;5038365;28;20392;-78
2021/06/18 07:28:51;;;;;;;47.90;27.42;;;;;;;23.55;60.36;93007.94;5055693;28;20041;-78
2021/06/18 07:31:16;;;;;;;43.35;26.73;;;;;;;23.64;58.02;93005.81;5055530;28;20037;-78
2021/06/18 07:33:42;;;;;;;40.35;25.63;;;;;;;23.72;59.06;93009.38;5037837;28;20124;-78
2021/06/18 07:36:08;;;;;;;47.40;29.25;;;;;;;24.06;58.26;93016.47;5038522;28;20075;-78
2021/06/18 07:38:34;;;;;;;45.35;27.60;;;;;;;24.08;55.39;93013.44;5038611;28;20120;-78
2021/06/18 07:41:00;;;;;;;44.33;26.55;;;;;;;24.12;55.30;93014.28;5057212;28;20041;-78
2021/06/18 07:43:25;;;;;;;37.78;22.45;;;;;;;24.52;53.85;93021.03;5055794;28;20556;-78
2021/06/18 07:45:51;;;;;;;48.55;27.63;;;;;;;24.80;53.54;93009.94;5057038;28;20041;-78
2021/06/18 07:48:18;;;;;;;41.15;25.58;;;;;;;25.23;54.48;93015.84;5022895;28;20036;-78
2021/06/18 07:50:43;;;;;;;38.35;25.73;;;;;;;25.05;52.43;93015.59;5057065;28;20049;-78
2021/06/18 07:53:10;;;;;;;42.10;24.35;;;;;;;25.19;54.61;93014.28;5023195;28;20532;-78
2021/06/18 07:55:36;;;;;;;40.47;24.75;;;;;;;25.00;55.56;93017.84;5039059;28;20029;-78
2021/06/18 07:58:01;;;;;;;43.85;26.90;;;;;;;25.02;54.45;93020.94;5038986;28;20056;-78
2021/06/18 08:00:27;;;;;;;40.72;26.15;;;;;;;24.83;56.85;93013.78;5031409;28;20065;-78
2021/06/18 08:02:53;;;;;;;43.95;25.70;;;;;;;25.09;54.90;93021.03;4954942;29;20515;-77
2021/06/18 08:05:19;;;;;;;37.80;22.83;;;;;;;24.78;52.74;93022.91;4954731;28;20130;-79
2021/06/18 08:07:46;;;;;;;34.03;21.35;;;;;;;24.91;53.42;93020.78;4955539;28;20081;-78
2021/06/18 08:10:14;;;;;;;41.10;25.33;;;;;;;24.69;57.50;93017.06;4954520;29;20511;-79
2021/06/18 08:12:41;;;;;;;42.40;25.98;;;;;;;24.96;55.58;93011.66;4955255;28;20032;-78
2021/06/18 08:15:08;;;;;;;41.58;25.92;;;;;;;24.61;57.32;93013.53;4953404;29;20565;-78
2021/06/18 08:17:34;;;;;;;37.95;25.38;;;;;;;23.92;56.03;93010.91;4953775;29;20421;-78
2021/06/18 08:20:01;;;;;;;45.78;28.13;;;;;;;24.39;57.85;93011.63;4938040;29;20433;-77
2021/06/18 08:22:26;;;;;;;41.35;26.02;;;;;;;24.34;56.21;92999.34;4955060;28;20043;-78
2021/06/18 08:24:52;;;;;;;33.17;21.08;;;;;;;24.24;53.67;93000.72;5021852;28;20066;-79
2021/06/18 08:27:18;;;;;;;34.55;20.52;;;;;;;24.02;54.42;92998.81;5055643;28;20067;-77
2021/06/18 08:29:43;;;;;;;28.75;19.02;;;;;;;24.06;54.32;93005.78;4954972;28;20053;-78
2021/06/18 08:32:09;;;;;;;37.30;19.20;;;;;;;24.19;54.21;92998.34;4955156;29;20046;-77
2021/06/18 08:34:36;;;;;;;39.63;21.92;;;;;;;23.78;54.65;93006.09;4955320;28;20105;-78
2021/06/18 08:37:01;;;;;;;38.38;21.58;;;;;;;23.66;56.04;93001.66;5053868;28;20070;-78
2021/06/18 08:39:27;;;;;;;33.08;20.35;;;;;;;23.75;54.60;93003.34;4955841;28;20130;-78
2021/06/18 08:41:53;;;;;;;35.15;21.48;;;;;;;23.71;54.58;93011.28;4954875;28;20058;-78
2021/06/18 08:44:19;;;;;;;32.70;19.67;;;;;;;23.95;55.09;92994.13;5054200;28;20101;-78
2021/06/18 08:46:46;;;;;;;35.22;20.20;;;;;;;23.74;52.88;93005.22;4955293;28;20051;-78
2021/06/18 08:49:12;;;;;;;34.30;19.40;;;;;;;24.08;54.22;92997.41;4953678;29;20047;-78
2021/06/18 08:51:38;;;;;;;29.67;18.38;;;;;;;24.01;54.99;92997.31;4954560;28;20051;-77
2021/06/18 08:54:04;;;;;;;34.80;21.05;;;;;;;24.05;53.48;93004.25;4953576;29;20386;-78
2021/06/18 08:56:30;;;;;;;28.80;19.13;;;;;;;24.28;54.15;93004.22;4954561;28;20047;-78
2021/06/18 08:58:55;;;;;;;33.40;19.17;;;;;;;24.24;54.00;93006.06;4954145;28;20497;-78
2021/06/18 09:01:21;;;;;;;30.13;20.17;;;;;;;24.45;53.52;93002.16;4970622;28;20145;-78
2021/06/18 09:03:48;;;;;;;32.70;20.73;;;;;;;24.54;54.03;93007.28;4973753;28;20096;-78
2021/06/18 09:06:17;;;;;;;31.98;20.23;;;;;;;24.34;53.08;93003.91;4959746;28;20114;-78
2021/06/18 09:08:44;;;;;;;36.08;20.73;;;;;;;24.17;55.34;93005.19;4994081;28;20052;-78
2021/06/18 09:11:10;;;;;;;32.58;19.27;;;;;;;23.96;55.61;93000.25;4992842;28;20091;-78
2021/06/18 09:13:36;;;;;;;36.15;19.67;;;;;;;24.24;54.38;93000.72;4960104;28;20057;-78
2021/06/18 09:16:03;;;;;;;29.83;19.40;;;;;;;24.45;53.37;93004.81;4992411;28;20047;-78
2021/06/18 09:18:36;;;;;;;28.95;17.85;;;;;;;24.36;53.99;93001.63;4993043;28;20035;-78
2021/06/18 09:21:01;;;;;;;29.27;18.30;;;;;;;24.20;54.39;92999.88;4975743;28;20062;-78
2021/06/18 09:23:30;;;;;;;33.53;20.52;;;;;;;23.70;54.15;93007.81;5076896;28;20069;-78
2021/06/18 09:26:16;;;;;;;33.58;20.77;;;;;;;24.33;53.43;92994.34;4993231;28;20042;-79
2021/06/18 09:29:03;;;;;;;30.30;18.70;;;;;;;24.63;53.16;92995.19;4992894;28;20050;-78
2021/06/18 09:31:55;;;;;;;29.42;18.58;;;;;;;24.65;53.26;92997.50;4992499;28;20051;-78
2021/06/18 09:34:42;;;;;;;37.47;20.80;;;;;;;24.40;53.76;92997.88;4993471;28;20249;-79
2021/06/18 09:37:19;;;;;;;27.92;18.45;;;;;;;24.57;54.28;92993.97;4993216;28;20053;-78
2021/06/18 09:39:55;;;;;;;27.10;17.92;;;;;;;24.81;53.06;92992.72;4993223;28;20084;-78
2021/06/18 09:42:23;;;;;;;30.88;18.75;;;;;;;24.47;54.02;92991.88;4975592;28;20065;-78
2021/06/18 09:45:07;;;;;;;34.20;19.70;;;;;;;24.87;52.92;92990.53;4992009;28;20035;-78
2021/06/18 09:47:35;;;;;;;30.98;20.38;;;;;;;24.65;52.63;92992.91;4975847;28;20049;-77
2021/06/18 09:50:01;;;;;;;30.92;20.08;;;;;;;24.90;52.18;92985.22;4976043;28;20123;-78
2021/06/18 09:52:26;;;;;;;32.88;19.08;;;;;;;24.91;52.70;92994.78;5059554;28;20042;-78
2021/06/18 09:54:53;;;;;;;27.48;17.77;;;;;;;24.95;52.82;92989.47;4992652;28;20125;-78
2021/06/18 09:57:22;;;;;;;31.23;19.33;;;;;;;25.09;52.29;92989.66;4976198;28;20042;-78
2021/06/18 09:59:51;;;;;;;29.15;17.92;;;;;;;25.16;51.68;92986.28;4964053;28;20070;-79
2021/06/18 10:02:19;;;;;;;32.05;18.83;;;;;;;24.45;53.91;92988.78;4954792;28;20069;-79
2021/06/18 10:04:48;;;;;;;28.83;19.55;;;;;;;24.49;51.29;92986.94;4954131;29;20055;-78
2021/06/18 10:07:14;;;;;;;31.98;18.13;;;;;;;25.02;51.79;92986.88;4965568;28;20046;-78
2021/06/18 10:09:40;;;;;;;28.30;17.13;;;;;;;25.42;50.45;92990.81;4973458;28;20055;-78
2021/06/18 10:12:07;;;;;;;37.38;19.08;;;;;;;25.58;51.04;92989.78;4968453;28;20125;-78
2021/06/18 10:14:33;;;;;;;29.63;18.52;;;;;;;25.73;49.67;92989.56;4974285;28;20046;-78
2021/06/18 10:17:00;;;;;;;26.08;17.50;;;;;;;25.70;50.74;92979.59;4968008;28;20050;-78
2021/06/18 10:19:32;;;;;;;25.73;17.77;;;;;;;25.37;51.00;92985.00;4972856;28;20104;-78
2021/06/18 10:22:13;;;;;;;27.73;18.52;;;;;;;25.40;50.39;92987.72;4973586;28;20521;-78
2021/06/18 10:24:48;;;;;;;31.30;17.95;;;;;;;25.79;50.05;92984.66;4973693;28;20047;-77
2021/06/18 10:27:18;;;;;;;25.20;16.73;;;;;;;26.18;49.99;92970.81;4973220;28;20482;-78
2021/06/18 10:29:44;;;;;;;23.35;16.10;;;;;;;26.31;49.99;92977.41;4967710;28;20042;-78
2021/06/18 10:32:31;;;;;;;26.38;17.33;;;;;;;26.25;49.97;92973.53;4975743;28;20099;-78
2021/06/18 10:34:59;;;;;;;29.65;18.08;;;;;;;26.02;47.46;92975.69;4970892;28;20091;-79
2021/06/18 10:37:28;;;;;;;25.40;17.20;;;;;;;26.07;50.71;92969.97;4976248;28;20042;-78
2021/06/18 10:40:11;;;;;;;29.23;17.42;;;;;;;26.31;48.60;92964.00;4976807;28;20053;-78
2021/06/18 10:42:37;;;;;;;34.60;17.58;;;;;;;26.18;49.15;92966.22;4977071;28;20039;-78
2021/06/18 10:45:04;;;;;;;25.30;17.80;;;;;;;26.18;49.72;92974.25;5074137;28;20046;-78
2021/06/18 10:47:31;;;;;;;29.13;18.80;;;;;;;26.29;47.39;92965.53;4976871;28;20046;-78
2021/06/18 10:49:58;;;;;;;25.98;18.35;;;;;;;26.27;47.95;92962.44;4977003;28;20129;-79
2021/06/18 10:52:25;;;;;;;32.13;19.17;;;;;;;26.13;49.21;92952.38;4976691;28;20622;-78
2021/06/18 10:55:00;;;;;;;29.40;17.60;;;;;;;26.05;49.10;92948.09;4970582;28;20141;-77
2021/06/18 10:57:28;;;;;;;32.60;18.38;;;;;;;26.05;48.59;92950.78;4976612;28;20058;-78
2021/06/18 10:59:56;;;;;;;31.23;18.40;;;;;;;25.95;48.30;92947.66;4974131;28;20423;-78
2021/06/18 11:02:25;;;;;;;26.83;17.83;;;;;;;25.97;48.57;92949.97;4977372;28;20051;-79
2021/06/18 11:04:57;;;;;;;27.48;17.20;;;;;;;26.07;48.72;92948.50;4976047;28;20054;-78
2021/06/18 11:07:36;;;;;;;41.50;17.73;;;;;;;26.16;48.29;92951.63;5060698;28;20053;-79
2021/06/18 11:10:09;;;;;;;28.30;18.80;;;;;;;26.06;49.14;92946.97;4976745;28;20054;-79
2021/06/18 11:12:37;;;;;;;23.85;17.00;;;;;;;26.12;49.05;92945.47;4976440;28;20435;-79
2021/06/18 11:15:14;;;;;;;27.67;17.45;;;;;;;25.92;49.70;92943.03;4958492;28;20050;-78
2021/06/18 11:18:16;;;;;;;26.75;17.48;;;;;;;25.96;47.33;92949.22;4977249;28;20039;-78
2021/06/18 11:20:42;;;;;;;27.45;17.05;;;;;;;26.12;48.33;92945.47;4967437;28;20126;-78
2021/06/18 11:23:13;;;;;;;26.83;18.33;;;;;;;26.42;47.25;92947.22;4975846;28;20078;-79
2021/06/18 11:25:42;;;;;;;28.55;18.75;;;;;;;26.60;45.63;92945.44;4976970;28;20047;-78
2021/06/18 11:28:23;;;;;;;24.58;15.77;;;;;;;26.73;47.77;92935.13;4976246;28;20058;-79
2021/06/18 11:30:58;;;;;;;25.23;16.50;;;;;;;26.95;44.46;92941.34;5059834;28;20065;-79
2021/06/18 11:33:39;;;;;;;31.77;16.38;;;;;;;26.38;46.58;92937.22;4976680;28;20767;-79
2021/06/18 11:36:09;;;;;;;28.45;16.85;;;;;;;26.46;46.24;92930.00;4975660;28;20146;-78
2021/06/18 11:38:36;;;;;;;29.00;18.23;;;;;;;26.36;45.37;92933.38;4976215;28;20471;-78
2021/06/18 11:41:05;;;;;;;28.70;17.70;;;;;;;26.52;44.54;92925.03;4975313;28;20063;-78
2021/06/18 11:43:32;;;;;;;27.30;17.92;;;;;;;26.90;46.60;92931.75;4976430;28;20542;-78
2021/06/18 11:45:59;;;;;;;28.83;17.95;;;;;;;26.71;46.11;92930.13;4975342;28;20050;-79
2021/06/18 11:48:25;;;;;;;26.92;17.95;;;;;;;26.58;46.42;92927.00;5059893;28;20081;-78
2021/06/18 11:50:52;;;;;;;25.67;16.67;;;;;;;26.66;46.18;92935.09;4975002;28;20043;-78
2021/06/18 11:53:18;;;;;;;24.45;16.70;;;;;;;26.92;45.96;92931.38;4975732;28;20046;-78
2021/06/18 11:55:55;;;;;;;27.73;17.35;;;;;;;26.32;47.61;92928.00;4976051;28;20134;-79
2021/06/18 11:58:41;;;;;;;29.98;18.10;;;;;;;26.71;47.08;92927.44;4976443;28;20053;-79
2021/06/18 12:01:18;;;;;;;26.25;17.52;;;;;;;26.35;47.09;92937.97;4940711;28;20063;-79
2021/06/18 12:03:46;;;;;;;23.60;15.93;;;;;;;26.48;46.04;92934.97;4957228;29;20404;-79
2021/06/18 12:06:21;;;;;;;25.42;17.55;;;;;;;26.32;46.74;92938.72;5038870;28;20054;-78
2021/06/18 12:09:07;;;;;;;26.48;18.00;;;;;;;26.15;47.70;92928.66;4956395;29;20058;-79
2021/06/18 12:11:53;;;;;;;25.17;17.58;;;;;;;26.60;47.22;92926.63;4956320;29;20062;-78
2021/06/18 12:14:19;;;;;;;34.00;17.88;;;;;;;26.90;46.53;92925.59;4956488;29;20085;-78
2021/06/18 12:16:47;;;;;;;29.80;17.30;;;;;;;26.41;46.59;92929.56;4956567;29;20044;-78
2021/06/18 12:19:23;;;;;;;29.25;18.00;;;;;;;26.39;46.49;92929.94;4956582;29;20497;-78
2021/06/18 12:22:04;;;;;;;26.90;16.63;;;;;;;26.48;46.32;92929.59;4956266;29;20054;-78
2021/06/18 12:24:37;;;;;;;24.77;16.90;;;;;;;26.91;44.37;92935.22;4956262;29;20090;-79
2021/06/18 12:27:06;;;;;;;27.58;15.80;;;;;;;27.06;45.21;92926.03;4956414;29;20381;-79
2021/06/18 12:29:35;;;;;;;24.02;15.93;;;;;;;27.15;46.18;92926.44;4956600;29;20039;-79
2021/06/18 12:32:01;;;;;;;25.45;16.02;;;;;;;26.72;45.43;92918.25;5037394;28;20580;-78
2021/06/18 12:34:28;;;;;;;27.05;15.38;;;;;;;26.57;45.33;92922.03;4957515;29;20122;-79
2021/06/18 12:37:06;;;;;;;22.35;14.57;;;;;;;26.33;43.99;92923.38;4956218;28;20039;-79
2021/06/18 12:39:50;;;;;;;23.77;15.70;;;;;;;26.42;44.56;92928.44;4957080;28;20142;-79
2021/06/18 12:42:31;;;;;;;20.67;14.85;;;;;;;26.48;43.89;92926.91;5037231;28;20161;-78
2021/06/18 12:45:05;;;;;;;21.35;14.85;;;;;;;26.78;43.41;92915.97;4956904;29;20500;-79
2021/06/18 12:47:31;;;;;;;20.17;13.52;;;;;;;26.93;42.93;92924.84;4957093;29;20051;-79
2021/06/18 12:49:57;;;;;;;18.20;12.93;;;;;;;26.96;42.98;92921.41;4956698;29;20558;-79
2021/06/18 12:52:23;;;;;;;20.35;13.48;;;;;;;27.14;43.16;92921.47;4954952;28;20040;-78
2021/06/18 12:54:48;;;;;;;19.35;12.70;;;;;;;27.08;44.08;92922.97;5040488;28;20069;-76
2021/06/18 12:57:28;;;;;;;29.67;15.45;;;;;;;27.31;43.19;92922.69;4957483;28;20047;-79
2021/06/18 13:00:12;;;;;;;22.33;13.77;;;;;;;27.06;42.25;92923.34;4948038;28;20055;-77
2021/06/18 13:02:41;;;;;;;21.67;14.45;;;;;;;27.07;42.84;92916.84;5038170;28;20501;-78
2021/06/18 13:05:19;;;;;;;24.70;14.52;;;;;;;27.40;42.75;92917.72;4933027;29;20416;-80
2021/06/18 13:07:47;;;;;;;20.90;12.25;;;;;;;26.85;43.07;92910.63;5038895;28;20071;-79
2021/06/18 13:10:14;;;;;;;20.27;13.70;;;;;;;26.81;42.90;92922.50;4940118;29;20144;-79
2021/06/18 13:12:40;;;;;;;19.15;13.38;;;;;;;27.22;42.29;92916.91;4957377;29;20058;-79
2021/06/18 13:15:08;;;;;;;21.35;14.48;;;;;;;27.43;40.30;92913.50;4955534;29;20078;-80
2021/06/18 13:17:50;;;;;;;18.88;13.40;;;;;;;27.45;42.21;92920.03;4957333;28;20055;-79
2021/06/18 13:20:32;;;;;;;;;;;;;;;27.08;42.81;92912.25;4956831;29;20565;-79
2021/06/18 13:22:58;;;;;;;19.65;13.70;;;;;;;26.80;43.41;92913.69;4956300;29;19940;-79
2021/06/18 13:25:30;;;;;;;22.15;13.55;;;;;;;26.98;43.32;92908.38;4957029;29;20081;-79
2021/06/18 13:28:01;;;;;;;22.92;13.43;;;;;;;26.88;41.61;92903.72;4957286;29;20508;-78
2021/06/18 13:30:27;;;;;;;23.88;13.85;;;;;;;26.66;42.41;92910.91;4956248;29;20051;-80
2021/06/18 13:32:55;;;;;;;21.20;13.95;;;;;;;27.47;42.04;92898.13;5055638;28;20054;-79
2021/06/18 13:35:24;;;;;;;18.90;13.35;;;;;;;26.86;43.52;92906.03;4956832;29;20043;-79
2021/06/18 13:38:03;;;;;;;20.85;14.00;;;;;;;27.02;43.23;92898.41;4955473;29;20463;-80
2021/06/18 13:40:45;;;;;;;21.58;12.55;;;;;;;27.24;41.62;92901.19;5040221;28;20047;-79
2021/06/18 13:43:11;;;;;;;;;;;;;;;26.65;42.06;92902.09;4940095;29;20555;-78
2021/06/18 13:45:37;;;;;;;20.15;13.50;;;;;;;26.81;42.37;92904.47;4956474;28;19914;-79
2021/06/18 13:48:04;;;;;;;20.08;14.05;;;;;;;27.08;41.78;92902.25;5013945;28;20048;-79
2021/06/18 13:50:38;;;;;;;23.75;13.15;;;;;;;27.22;42.19;92908.84;5031648;28;20052;-79
2021/06/18 13:53:04;;;;;;;35.45;15.60;;;;;;;26.93;42.75;92906.84;4953010;28;20049;-79
2021/06/18 13:55:29;;;;;;;29.88;13.80;;;;;;;27.22;42.38;92911.53;4974523;28;20403;-78
2021/06/18 13:57:55;;;;;;;23.25;13.75;;;;;;;27.09;42.60;92903.81;4971219;28;20096;-79
2021/06/18 14:00:21;;;;;;;21.83;12.82;;;;;;;27.01;44.00;92910.28;4956348;28;20120;-80
2021/06/18 14:02:47;;;;;;;24.70;14.85;;;;;;;27.25;43.44;92910.78;4960454;28;20046;-78
2021/06/18 14:05:13;;;;;;;21.55;13.45;;;;;;;27.26;44.09;92904.25;4989811;28;20047;-78
2021/06/18 14:07:39;;;;;;;19.88;14.07;;;;;;;27.26;42.85;92906.94;4988650;28;20134;-79
2021/06/18 14:10:05;;;;;;;19.33;12.95;;;;;;;26.97;42.64;92904.91;4994792;28;20058;-79
2021/06/18 14:12:31;;;;;;;18.48;12.85;;;;;;;26.82;43.56;92906.03;4994562;28;20092;-78
2021/06/18 14:17:25;;;;;;;25.70;13.02;;;;;;;26.88;43.52;92898.34;4995591;28;20046;-80
2021/06/18 14:19:51;;;;;;;19.58;12.80;;;;;;;27.27;42.12;92897.72;4994312;28;20070;-79
2021/06/18 14:22:17;;;;;;;19.00;12.45;;;;;;;27.26;41.91;92888.88;4989303;28;20038;-79
2021/06/18 14:24:43;;;;;;;18.00;12.50;;;;;;;27.24;42.89;92903.84;4975640;28;20053;-78
2021/06/18 14:27:10;;;;;;;19.63;12.45;;;;;;;27.38;41.86;92898.50;4974737;28;20054;-79
2021/06/18 14:29:36;;;;;;;16.17;12.55;;;;;;;27.39;41.55;92906.19;4974700;28;20054;-79
2021/06/18 14:32:05;;;;;;;17.75;13.27;;;;;;;27.35;41.39;92901.97;4976689;28;20440;-78
2021/06/18 14:34:32;;;;;;;21.50;13.05;;;;;;;27.74;41.75;92893.94;5044367;28;20048;-80
2021/06/18 14:36:58;;;;;;;22.92;13.65;;;;;;;28.34;41.17;92895.03;5059425;28;20062;-78
2021/06/18 14:39:24;;;;;;;26.75;13.95;;;;;;;28.42;40.51;92907.34;4974953;28;20500;-79
2021/06/18 14:41:50;;;;;;;18.90;13.43;;;;;;;28.07;40.74;92902.78;4975698;28;20042;-78
2021/06/18 14:44:16;;;;;;;20.42;13.80;;;;;;;28.57;40.60;92888.47;4973999;28;20047;-78
2021/06/18 14:46:41;;;;;;;20.05;13.32;;;;;;;27.86;41.49;92883.97;4970688;28;20047;-78
2021/06/18 14:49:07;;;;;;;20.98;14.13;;;;;;;27.53;42.86;92894.69;4971048;28;20039;-79
2021/06/18 14:51:35;;;;;;;22.70;14.43;;;;;;;26.66;43.63;92897.50;4971713;28;20043;-80
2021/06/18 14:54:03;;;;;;;25.63;13.48;;;;;;;27.44;41.43;92896.97;4970594;28;20050;-79
2021/06/18 14:56:29;;;;;;;20.80;13.45;;;;;;;26.91;43.37;92903.00;4972841;28;20050;-80
2021/06/18 14:58:55;;;;;;;21.25;14.45;;;;;;;26.71;43.74;92897.16;4955284;28;20051;-79
2021/06/18 15:01:20;;;;;;;22.83;13.68;;;;;;;26.59;44.30;92906.28;4914951;28;20125;-78
2021/06/18 15:03:46;;;;;;;21.98;13.75;;;;;;;26.49;43.92;92909.69;4932396;29;20152;-78
2021/06/18 15:06:12;;;;;;;25.83;13.48;;;;;;;26.24;44.21;92915.66;4931052;29;20048;-79
2021/06/18 15:08:38;;;;;;;19.67;13.02;;;;;;;26.56;44.41;92896.31;4916207;29;20043;-78
2021/06/18 15:11:04;;;;;;;20.25;12.60;;;;;;;26.86;44.09;92903.34;4916267;29;20036;-77
2021/06/18 15:13:30;;;;;;;17.83;12.82;;;;;;;26.65;42.89;92902.09;5015366;28;20131;-79
2021/06/18 15:15:56;;;;;;;17.90;12.75;;;;;;;26.79;43.11;92899.50;4934376;29;20079;-78
2021/06/18 15:18:21;;;;;;;19.88;13.27;;;;;;;26.74;41.80;92899.06;4935624;29;20047;-78
2021/06/18 15:20:47;;;;;;;20.33;13.23;;;;;;;26.95;42.39;92903.75;4936597;29;20056;-78
2021/06/18 15:23:14;;;;;;;21.83;12.93;;;;;;;26.88;42.72;92903.72;4937273;29;20388;-78
2021/06/18 15:25:40;;;;;;;17.73;13.02;;;;;;;26.53;43.37;92891.69;4935045;29;20082;-79
2021/06/18 15:28:06;;;;;;;20.90;13.13;;;;;;;26.18;44.27;92903.75;4914763;29;20055;-77
2021/06/18 15:30:33;;;;;;;19.38;12.55;;;;;;;26.32;45.28;92895.78;5015805;28;20099;-78
2021/06/18 15:32:58;;;;;;;18.77;13.32;;;;;;;25.99;45.22;92901.34;4935400;29;20544;-78
2021/06/18 15:35:24;;;;;;;21.02;13.20;;;;;;;25.76;45.89;92895.00;4934443;29;20052;-77
2021/06/18 15:37:50;;;;;;;20.50;13.13;;;;;;;25.92;45.82;92897.44;4936007;28;20497;-78
2021/06/18 15:40:18;;;;;;;23.02;12.75;;;;;;;25.93;45.05;92898.97;4935088;29;20048;-79
2021/06/18 15:42:43;;;;;;;20.42;12.55;;;;;;;26.46;44.99;92894.34;4934694;29;20432;-78
2021/06/18 15:45:10;;;;;;;21.30;12.15;;;;;;;26.92;44.56;92883.03;4935348;29;20040;-79
2021/06/18 15:47:35;;;;;;;20.98;12.52;;;;;;;27.35;44.55;92873.16;4910947;28;20083;-77
2021/06/18 15:50:02;;;;;;;20.20;12.25;;;;;;;27.44;42.95;92880.09;4934142;29;20087;-79
2021/06/18 15:52:28;;;;;;;18.10;11.50;;;;;;;27.02;44.60;92879.63;4918941;28;20048;-79
2021/06/18 15:54:54;;;;;;;18.80;12.25;;;;;;;27.06;44.10;92882.28;4935823;28;20055;-79
2021/06/18 15:57:20;;;;;;;19.60;12.48;;;;;;;27.18;42.34;92880.03;4935408;29;20370;-79
2021/06/18 15:59:45;;;;;;;18.88;11.40;;;;;;;26.93;43.79;92884.56;4938736;29;20095;-79
2021/06/18 16:02:11;;;;;;;22.73;12.57;;;;;;;26.98;43.66;92879.59;4970829;28;20055;-79
2021/06/18 16:04:36;;;;;;;24.67;12.45;;;;;;;27.11;43.13;92879.22;4972999;28;20049;-79
2021/06/18 16:07:02;;;;;;;17.50;12.20;;;;;;;26.83;43.70;92883.38;4956982;28;20484;-79
2021/06/18 16:09:28;;;;;;;18.25;11.88;;;;;;;26.66;43.98;92882.19;4973244;28;20035;-79
2021/06/18 16:11:54;;;;;;;20.25;12.80;;;;;;;26.12;45.63;92887.25;4974084;28;20039;-78
2021/06/18 16:14:20;;;;;;;20.70;11.88;;;;;;;26.24;43.84;92885.41;4956044;28;20047;-79
2021/06/18 16:16:46;;;;;;;19.67;11.95;;;;;;;26.31;44.52;92888.88;4973081;28;20085;-78
2021/06/18 16:19:17;;;;;;;18.95;11.57;;;;;;;26.71;44.64;92895.22;4973609;28;20552;-78
2021/06/18 16:21:45;;;;;;;19.05;12.32;;;;;;;26.72;42.84;92888.69;4973548;28;20077;-79
2021/06/18 16:24:11;;;;;;;19.38;11.40;;;;;;;26.78;43.32;92889.13;4972447;28;20046;-77
2021/06/18 16:26:38;;;;;;;23.80;11.82;;;;;;;26.44;43.51;92880.53;4944728;28;20401;-79
2021/06/18 16:29:04;;;;;;;14.73;10.15;;;;;;;26.08;44.72;92897.19;4974012;28;20552;-79
2021/06/18 16:31:30;;;;;;;16.80;10.63;;;;;;;25.80;45.35;92892.34;4974665;28;20051;-76
2021/06/18 16:33:56;;;;;;;19.27;10.68;;;;;;;25.85;45.78;92888.53;4959587;28;20146;-79
2021/06/18 16:36:22;;;;;;;18.13;11.18;;;;;;;26.17;45.87;92899.53;4975651;28;20059;-79
2021/06/18 16:38:48;;;;;;;17.40;11.10;;;;;;;26.64;44.34;92881.78;4958917;28;20054;-80
2021/06/18 16:41:17;;;;;;;19.55;11.05;;;;;;;26.24;44.01;92882.72;4956575;28;20063;-79
2021/06/18 16:43:43;;;;;;;16.38;10.43;;;;;;;26.50;43.09;92889.72;4973935;28;20058;-79
2021/06/18 16:46:09;;;;;;;16.92;11.07;;;;;;;26.71;43.92;92892.56;4957569;28;20035;-78
2021/06/18 16:48:35;;;;;;;17.42;9.70;;;;;;;26.76;43.20;92897.53;4956219;28;20146;-78
2021/06/18 16:51:01;;;;;;;20.35;10.95;;;;;;;26.89;43.52;92892.63;4957397;28;20053;-77
2021/06/18 16:53:26;;;;;;;15.35;10.07;;;;;;;26.69;43.28;92892.16;4956080;28;20051;-77
2021/06/18 16:55:52;;;;;;;14.82;10.32;;;;;;;26.73;43.80;92886.81;4975264;28;20059;-79
2021/06/18 16:58:18;;;;;;;21.17;10.55;;;;;;;26.82;43.51;92883.75;4941063;28;20047;-79
2021/06/18 17:00:43;;;;;;;17.90;10.30;;;;;;;26.95;43.28;92888.41;5016120;28;20067;-81
2021/06/18 17:03:09;;;;;;;16.50;10.57;;;;;;;26.92;43.34;92891.84;5045431;28;20033;-77
2021/06/18 17:05:35;;;;;;;17.27;9.82;;;;;;;26.95;42.27;92898.38;5022569;28;20203;-81